createdAt,value
2018-08-23T00:04:28.634Z,3.8
2018-08-23T00:21:15.689Z,3.8
2018-08-23T00:38:03.401Z,3.8
2018-08-23T00:54:50.852Z,3.8
2018-08-23T01:11:38.093Z,3.8
2018-08-23T01:45:11.977Z,3.7
2018-08-23T02:01:58.776Z,3.7
2018-08-23T02:35:30.839Z,3.7
2018-08-23T02:52:16.634Z,3.7
2018-08-23T03:09:02.363Z,3.7
2018-08-23T03:25:47.822Z,3.7
2018-08-23T03:42:33.321Z,3.7
2018-08-23T03:59:19.021Z,3.7
2018-08-23T04:16:04.257Z,3.7
2018-08-23T04:32:49.383Z,3.7
2018-08-23T04:49:34.645Z,3.7
2018-08-23T05:06:19.858Z,3.7
2018-08-23T05:23:05.405Z,3.7
2018-08-23T05:39:51.150Z,3.7
2018-08-23T05:56:37.604Z,3.8
2018-08-23T06:13:24.375Z,3.8
2018-08-23T06:30:11.539Z,3.8
2018-08-23T06:46:59.098Z,3.9
2018-08-23T07:03:46.787Z,3.9
2018-08-23T07:17:13.201Z,4.0
2018-08-23T07:34:01.489Z,4.0
2018-08-23T07:50:50.186Z,4.0
2018-08-23T08:04:17.270Z,4.0
2018-08-23T08:21:06.851Z,4.1
2018-08-23T08:37:56.788Z,4.1
2018-08-23T08:54:47.098Z,4.1
2018-08-23T09:04:53.568Z,4.1
2018-08-23T09:21:45.445Z,4.1
2018-08-23T09:38:36.336Z,4.1
2018-08-23T09:48:43.582Z,4.1
2018-08-23T10:02:13.537Z,4.2
2018-08-23T10:12:21.437Z,4.3
2018-08-23T10:24:12.180Z,4.3
2018-08-23T10:58:00.232Z,4.2
2018-08-23T11:14:53.663Z,4.3
2018-08-23T11:31:48.073Z,4.3
2018-08-23T11:55:28.990Z,4.5
2018-08-23T12:12:24.616Z,4.4
2018-08-23T12:29:19.810Z,4.5
2018-08-23T12:42:52.467Z,4.4
2018-08-23T13:16:43.641Z,4.4
2018-08-23T13:33:38.668Z,4.4
2018-08-23T13:50:33.707Z,4.3
2018-08-23T14:07:28.905Z,4.3
2018-08-23T14:24:23.741Z,4.3
2018-08-23T14:41:18.780Z,4.3
2018-08-23T14:58:13.725Z,4.2
2018-08-23T15:15:07.848Z,4.2
2018-08-23T15:32:01.395Z,4.2
2018-08-23T15:48:54.787Z,4.2
2018-08-23T16:05:48.085Z,4.2
2018-08-23T16:22:41.235Z,4.2
2018-08-23T16:39:34.361Z,4.2
2018-08-23T16:51:23.836Z,4.3
2018-08-23T17:08:18.353Z,4.2
2018-08-23T17:18:26.110Z,4.1
2018-08-23T17:28:33.377Z,4.1
2018-08-23T17:38:40.423Z,4.0
2018-08-23T17:55:31.338Z,4.0
2018-08-23T18:05:37.641Z,4.0
2018-08-23T18:22:27.694Z,4.0
2018-08-23T18:39:17.439Z,4.0
2018-08-23T18:56:07.056Z,4.0
2018-08-23T19:12:56.362Z,4.0
2018-08-23T19:29:45.100Z,4.0
2018-08-23T19:46:33.717Z,3.9
2018-08-23T20:03:22.053Z,3.9
2018-08-23T20:20:10.258Z,3.9
2018-08-23T20:36:58.839Z,3.9
2018-08-23T21:10:33.701Z,3.9
2018-08-23T21:27:21.306Z,3.9
2018-08-23T21:44:08.597Z,3.9
2018-08-23T22:00:55.692Z,3.9
2018-08-23T22:17:42.700Z,3.9
2018-08-23T22:34:29.646Z,3.8
2018-08-23T22:51:16.765Z,3.8
2018-08-23T23:08:04.014Z,3.8
2018-08-23T23:24:51.386Z,3.8
2018-08-23T23:41:38.763Z,3.8
2018-08-23T23:58:26.138Z,3.8
